Decoded Metar for KEGV (EAGLE RIVER in WI, USA) (IATA:EGV) | Meteo·Mobile Aviation Weather
aviador You're here:

KEGV Decoded Metar

EAGLE RIVER in WI, USA
Report Time2019-03-20 23:15:00
UTC Time2019-03-20 23:12:33
Flight Rules ifr IFR
Wind350° at 05 kt
W.Decomp.*RWY 31: 3.7 kt HW 3.3 kt RCW
RWY 04: 3.3 kt HW 3.7 kt LCW
W.Rank350° ranks 14
Current wind is below 350° avg. (7.9)
Visibility9999 m
Phenomena:N/A
Clouds:Overcast 009 Hf
Expected CloudBase > 400 ft AGL from Temp-Dew spread
Ceiling900 ft
Temp01°C (ISA -11)
Dew Point00°C (93% RH)
AAT-2.8°C
QNH1012 hPa
Density Alt459 ft
Elevation1,640 ft
Report Wrong Elevation
Raw Report
KEGV 202315Z AUTO 35005KT 7SM OVC009 01/00 A2988 RMK AO2
T00080003=

Extra information for KEGV:More info

Metar Taf Metar & Taf Last 4 Metars F.Rules Stats Wind Profile Meteogram Temp Stats Airport Information Weather charts Add Link Nearby VenuesMetar ALERT Operation Metar Decoded Social comments

AIRNAV info for KEGV